Badger Spring Valley, Nevada Weather observations

Data are for 10 minute period ending at time listed.
 Day   Time   Solar   Ave.   Ave.  Ave.  Vector  Max.   Baro.   Total    
  of    of     Rad.   Air    Rel.  Wind   Wind   Wind  Press.  Precip.   
Year   Day            Temp.  Hum.  Speed  Dir.   Gust                    
2017   (PST)  Kw/m2    F      %     mph   deg.    mph    mb.     in.     
-------------------------------------------------------------------------
  18    8:20   0.23   39.0    34    2.1   159     3.4   831.4    0.00 
  18    8:30   0.26   39.6    34    1.8   181     3.7   831.3    0.00 
  18    8:40   0.29   40.0    33    2.2   208     3.6   831.2    0.00 
  18    8:50   0.32   40.4    32    2.5   205     5.6   831.1    0.00 
  18    9:00   0.35   41.1    31    2.3   172     3.9   831.2    0.00 
  18    9:10   0.38   41.1    30    4.0   141     6.3   831.1    0.00 
  18    9:20   0.41   40.5    31    6.0   136     8.1   831.1    0.00 
  18    9:30   0.44   40.8    32    5.2   153     8.6   831.2    0.00 
  18    9:40   0.47   41.4    31    5.4   156     8.6   831.4    0.00 
  18    9:50   0.49   41.4    31    7.4   159    11.1   831.4    0.00 
  18   10:00   0.52   42.1    31    6.8   159    10.2   831.3    0.00 
  18   10:10   0.54   41.8    31    6.7   152     9.7   831.2    0.00 
  18   10:20   0.56   41.9    32    6.7   142    10.2   831.1    0.00 
  18   10:30   0.56   42.1    32    6.9   170    11.3   831.1    0.00 
  18   10:40   0.59   42.7    31    7.9   172    10.5   831.0    0.00 
  18   10:50   0.61   42.4    32    9.1   150    12.8   830.8    0.00 
  18   11:00   0.61   41.8    34    8.3   138    14.9   830.5    0.00 
  18   11:10   0.63   42.1    34    8.5   143    12.9   830.3    0.00 
  18   11:20   0.63   42.1    34    9.3   142    15.3   830.1    0.00 
  18   11:30   0.65   42.9    33    8.7   142    15.1   829.8    0.00 
  18   11:40   0.66   42.6    34   10.4   137    13.1   829.6    0.00 
  18   11:50   0.60   42.8    34    9.0   156    12.7   829.4    0.00 
  18   12:00   0.52   42.5    34    9.3   156    12.9   829.3    0.00 
  18   12:10   0.53   42.2    35    7.6   154    12.2   829.0    0.00 
  18   12:20   0.64   43.0    34    8.1   157    12.5   828.9    0.00 
  18   12:30   0.61   43.5    33    9.6   165    14.4   828.8    0.00 
  18   12:40   0.64   43.6    33    9.0   158    13.7   828.6    0.00 
  18   12:50   0.61   44.4    31    7.4   180    13.1   828.6    0.00 
  18   13:00   0.50   43.8    32    8.6   166    12.3   828.4    0.00 
  18   13:10   0.43   42.7    32    8.5   157    12.9   828.0    0.00 
  18   13:20   0.38   42.4    34    7.7   153    11.3   827.6    0.00 
  18   13:30   0.33   41.8    35    7.7   145    12.8   827.5    0.00 
  18   13:40   0.29   41.5    36    7.6   158    12.0   827.3    0.00 
  18   13:50   0.34   40.9    38    8.4   139    11.8   827.1    0.00 
  18   14:00   0.30   41.2    37    8.5   161    11.9   827.0    0.00 
  18   14:10   0.23   40.3    39    8.6   135    11.8   826.7    0.00 
  18   14:20   0.23   39.8    41    7.9   139    10.9   826.8    0.00 
  18   14:30   0.26   39.6    41    9.3   138    13.4   826.7    0.00 
  18   14:40   0.26   39.1    42   10.0   133    14.2   826.5    0.00 
  18   14:50   0.25   38.7    42   10.2   138    14.4   826.7    0.00 
  18   15:00   0.24   38.5    43    8.7   146    12.6   826.8    0.00 
  18   15:10   0.18   38.3    43    7.6   141    11.6   826.9    0.00 
  18   15:20   0.12   37.7    45    7.2   160    10.9   827.1    0.00 
  18   15:30   0.10   37.6    46    7.0   172    10.7   827.4    0.00 
  18   15:40   0.11   37.5    47    5.8   166     9.8   827.5    0.00 
  18   15:50   0.10   37.3    48    6.5   163    11.2   827.6    0.00 
  18   16:00   0.10   37.3    49    3.6   151     5.7   827.6    0.00 
  18   16:10   0.06   37.0    49    2.4   155     6.1   827.6    0.00 
  18   16:20   0.04   36.7    49    0.9   114     3.7   827.4    0.00 
  18   16:30   0.03   36.5    50    1.3   254     2.5   827.5    0.00 
  18   16:40   0.02   36.1    52    1.7   271     2.9   827.4    0.00 
  18   16:50   0.01   35.5    53    1.1   273     2.6   827.3    0.00 
  18   17:00   0.00   34.7    55    2.4   290     3.1   827.3    0.00 
  18   17:10   0.00   34.1    57    1.6   296     2.8   827.3    0.00 
  18   17:20   0.00   34.1    58    0.5   239     1.5   827.3    0.00 
  18   17:30   0.00   33.1    61    0.4   267     2.0   827.2    0.00 
  18   17:40   0.00   33.3    60    2.0   233     2.9   827.3    0.00 
  18   17:50   0.00   33.7    60    3.2   272     4.8   827.3    0.00 
  18   18:00   0.00   33.6    59    2.9   233     3.6   827.4    0.00 
  18   18:10   0.00   34.2    57    2.7   216     4.3   827.3    0.00 
  18   18:20   0.00   33.8    59    2.7   217     3.4   827.3    0.00 
  18   18:30   0.00   33.1    62    1.3   217     3.0   827.2    0.00 
  18   18:40   0.00   31.8    67    0.7   245     1.5   827.1    0.00 
  18   18:50   0.00   32.3    67    0.9   272     1.6   826.9    0.00 
  18   19:00   0.00   33.1    65    2.2   293     3.2   826.8    0.00 
  18   19:10   0.00   33.9    61    3.4   280     4.2   826.7    0.00 
  18   19:20   0.00   34.7    58    3.4   270     4.8   826.7    0.00 
  18   19:30   0.00   35.0    57    3.5   271     4.7   826.6    0.00 
  18   19:40   0.00   35.3    56    2.0   254     2.9   826.6    0.00 
  18   19:50   0.00   35.5    54    2.7   216     5.2   826.6    0.00 
  18   20:00   0.00   35.5    54    2.6   198     3.9   826.5    0.00 
  18   20:10   0.00   35.4    55    1.4   245     2.8   826.5    0.00 
  18   20:20   0.00   35.4    55    1.7   236     2.9   826.6    0.00 
  18   20:30   0.00   35.2    56    1.2   193     3.4   826.6    0.00 
  18   20:40   0.00   35.1    56    2.5   149     5.9   826.5    0.00 
  18   20:50   0.00   34.8    57    3.3   216     6.1   826.6    0.00 
  18   21:00   0.00   35.0    57    4.0   212     8.8   826.6    0.00 
  18   21:10   0.00   35.0    65    9.0   223    15.4   826.5    0.00 
  18   21:20   0.00   34.0    74    8.1   208    11.6   826.5    0.00 
  18   21:30   0.00   32.5    85    7.3   207    10.7   826.4    0.00 
  18   21:40   0.00   31.6    90    4.7   214     6.6   826.3    0.00 
  18   21:50   0.00   31.1    93    2.2   208     3.6   826.2    0.00 
  18   22:00   0.00   30.8    94    1.9   189     2.6   826.2    0.00 
  18   22:10   0.00   30.6    95    2.1   200     3.2   826.2    0.00 
  18   22:20   0.00   30.5    96    1.8   214     3.1   826.3    0.00 
  18   22:30   0.00   30.5    96    1.7   198     2.9   826.3    0.00 
  18   22:40   0.00   30.3    96    1.7   194     2.6   826.2    0.00 
  18   22:50   0.00   30.3    97    1.1   185     2.0   826.1    0.00 
  18   23:00   0.00   30.2    97    1.7   158     2.7   826.0    0.00 
  18   23:10   0.00   30.1    97    2.4   141     3.9   825.9    0.00 
  18   23:20   0.00   30.0    97    2.4   180     3.1   825.8    0.00 
  18   23:30   0.00   29.9    98    2.1   208     4.5   825.6    0.00 
  18   23:40   0.00   29.9    98    3.3   200     5.3   825.6    0.00 
  18   23:50   0.00   29.7    98    3.7   208     5.4   825.4    0.00 
  19    0:00   0.00   29.6    98    4.2   188     6.9   825.4    0.00 
  19    0:10   0.00   29.5    98    3.8   164     6.0   825.2    0.00 
  19    0:20   0.00   29.5    98    3.3   178     5.4   825.0    0.00 
  19    0:30   0.00   29.4    98    2.9   191     4.7   824.8    0.00 
  19    0:40   0.00   29.4    98    3.9   221     5.0   824.8    0.00 
  19    0:50   0.00   29.3    98    3.3   197     5.2   824.5    0.00 
  19    1:00   0.00   29.3    98    2.9   201     4.9   824.4    0.00 
  19    1:10   0.00   29.4    98    3.1   182     4.9   824.3    0.00 
  19    1:20   0.00   29.6    98    5.4   181    10.4   824.3    0.00 
  19    1:30   0.00   29.7    98    5.8   170     9.4   824.3    0.00 
  19    1:40   0.00   29.6    98    4.6   164     8.8   824.2    0.00 
  19    1:50   0.00   29.6    99    4.4   160     8.0   824.1    0.00 
  19    2:00   0.00   29.6    99    5.2   164     9.5   824.0    0.00 
  19    2:10   0.00   29.6    99    5.6   180     8.6   824.0    0.00 
  19    2:20   0.00   29.6    99    3.2   164     6.0   823.9    0.00 
  19    2:30   0.00   29.7    99    4.3   166     7.9   823.8    0.00 
  19    2:40   0.00   29.7    99    5.0   175     9.4   823.8    0.00 
  19    2:50   0.00   29.8    99    5.2   175    10.1   823.8    0.00 
  19    3:00   0.00   29.9    99    4.7   160     9.0   823.7    0.00 
  19    3:10   0.00   29.9    99    4.8   176     8.0   823.8    0.00 
  19    3:20   0.00   29.9    99    6.0   173     8.5   823.7    0.00 
  19    3:30   0.00   29.9    99    6.3   167     9.3   823.6    0.00 
  19    3:40   0.00   30.0    99    5.8   180     9.0   823.4    0.00 
  19    3:50   0.00   30.2    99    3.9   186     7.2   823.2    0.00 
  19    4:00   0.00   30.3    99    5.5   170     8.6   823.2    0.00 
  19    4:10   0.00   30.2    99    6.5   166    10.9   823.2    0.00 
  19    4:20   0.00   30.3    99    5.5   170     9.3   823.2    0.00 
  19    4:30   0.00   30.4    99    6.1   177    10.2   823.1    0.00 
  19    4:40   0.00   30.4    99    5.8   171     8.6   823.1    0.00 
  19    4:50   0.00   30.4    99    4.4   180     6.7   823.1    0.00 
  19    5:00   0.00   30.4    99    5.1   192     8.0   823.0    0.00 
  19    5:10   0.00   30.4    99    4.0   188     6.9   823.0    0.00 
  19    5:20   0.00   30.5    99    5.7   175     8.8   823.0    0.00 
  19    5:30   0.00   30.5    99    5.7   182     8.2   823.0    0.00 
  19    5:40   0.00   30.5    99    5.9   193     8.9   823.1    0.00 
  19    5:50   0.00   30.5    99    6.0   187     8.8   823.1    0.00 
  19    6:00   0.00   30.5    99    5.8   185     9.3   822.9    0.00 
  19    6:10   0.00   30.5    99    5.6   186     8.0   822.9    0.00 
  19    6:20   0.00   30.5    99    5.0   186     8.4   822.9    0.00 
  19    6:30   0.00   30.5    99    5.8   189     8.5   823.0    0.00 
  19    6:40   0.00   30.5    99    5.4   191     8.8   822.9    0.00 
  19    6:50   0.00   30.5    99    5.0   197     6.7   822.8    0.00 
  19    7:00   0.00   30.5    99    4.5   191     6.6   822.8    0.00 
  19    7:10   0.00   30.5    99    4.1   171     5.5   822.7    0.00 
  19    7:20   0.00   30.5    99    4.2   155     6.0   822.7    0.00 
  19    7:30   0.01   30.5    99    4.9   147     7.2   822.7    0.00 
  19    7:40   0.01   30.6    99    6.4   162     7.7   822.8    0.00 
  19    7:50   0.01   30.7    99    4.0   155     6.8   822.8    0.00 
  19    8:00   0.01   30.9    99    2.7   136     4.3   822.7    0.00 
  19    8:10   0.02   31.0    99    3.3   117     4.9   822.5    0.00 

Return to Badger Spring Valley graphs page.


Western Regional Climate Center,wrcc@dri.edu